Gibson, North Carolina
Current Conditions -  °F | °C
As of 9:55 PM on Sunday 23 Nov 2014 (Local Time) from KBBP Reporting Station
Heavy Rain Heavy Rain  
Wind Chill: 68°   Ceiling: 1900
Heat Index: 68°   Visibility: 3mi
Dew Point: 68°   Wind: 7mph
Humidity: 100%   Direction: 180°S
Pressure: 29.84"   Gusts: NA
Location:  34.76°N, 79.61°W
Report Text: KBBP 240255Z AUTO 18006KT 3SM +RA SCT010 BKN019 OVC029 20/20 A2984 RMK AO2 P0030 LTG DSNT E AND SE
Loading
Personal Weather Stations






























Interactive Weather Map New forecast layout! Learn more

10-Day Weather Forecast

Advertisements
Track Severe Weather on mobile